sensor_id;sensor_type;location;lat;lon;timestamp;P1;durP1;ratioP1;P2;durP2;ratioP2
18796;SDS011;9526;52.612;13.300;2022-09-16T00:01:41;5.00;;;1.50;;
18796;SDS011;9526;52.612;13.300;2022-09-16T00:04:05;2.78;;;1.45;;
18796;SDS011;9526;52.612;13.300;2022-09-16T00:06:30;6.78;;;1.60;;
18796;SDS011;9526;52.612;13.300;2022-09-16T00:08:54;6.15;;;1.60;;
18796;SDS011;9526;52.612;13.300;2022-09-16T00:11:21;3.83;;;1.60;;
18796;SDS011;9526;52.612;13.300;2022-09-16T00:13:46;6.50;;;1.48;;
18796;SDS011;9526;52.612;13.300;2022-09-16T00:16:10;2.70;;;1.23;;
18796;SDS011;9526;52.612;13.300;2022-09-16T00:18:39;3.45;;;1.73;;
18796;SDS011;9526;52.612;13.300;2022-09-16T00:21:05;1.98;;;1.20;;
18796;SDS011;9526;52.612;13.300;2022-09-16T00:23:32;6.50;;;1.45;;
18796;SDS011;9526;52.612;13.300;2022-09-16T00:25:56;3.05;;;1.50;;
18796;SDS011;9526;52.612;13.300;2022-09-16T00:28:20;5.10;;;1.30;;
18796;SDS011;9526;52.612;13.300;2022-09-16T00:30:44;5.25;;;1.75;;
18796;SDS011;9526;52.612;13.300;2022-09-16T00:33:08;4.38;;;1.60;;
18796;SDS011;9526;52.612;13.300;2022-09-16T00:35:32;4.60;;;1.60;;
18796;SDS011;9526;52.612;13.300;2022-09-16T00:37:56;3.88;;;1.40;;
18796;SDS011;9526;52.612;13.300;2022-09-16T00:40:21;5.50;;;1.27;;
18796;SDS011;9526;52.612;13.300;2022-09-16T00:42:45;5.45;;;1.30;;
18796;SDS011;9526;52.612;13.300;2022-09-16T00:45:12;3.45;;;1.40;;
18796;SDS011;9526;52.612;13.300;2022-09-16T00:47:40;3.67;;;1.63;;
18796;SDS011;9526;52.612;13.300;2022-09-16T00:50:09;2.40;;;1.33;;
18796;SDS011;9526;52.612;13.300;2022-09-16T00:52:38;4.20;;;1.45;;
18796;SDS011;9526;52.612;13.300;2022-09-16T00:55:05;5.25;;;1.60;;
18796;SDS011;9526;52.612;13.300;2022-09-16T00:57:33;7.20;;;1.52;;
18796;SDS011;9526;52.612;13.300;2022-09-16T00:59:57;4.15;;;1.20;;
18796;SDS011;9526;52.612;13.300;2022-09-16T01:02:22;6.90;;;1.50;;
18796;SDS011;9526;52.612;13.300;2022-09-16T01:04:47;6.00;;;1.52;;
18796;SDS011;9526;52.612;13.300;2022-09-16T01:07:16;6.88;;;1.52;;
18796;SDS011;9526;52.612;13.300;2022-09-16T01:09:45;2.28;;;1.48;;
18796;SDS011;9526;52.612;13.300;2022-09-16T01:12:09;3.25;;;1.35;;
18796;SDS011;9526;52.612;13.300;2022-09-16T01:14:34;7.82;;;1.75;;
18796;SDS011;9526;52.612;13.300;2022-09-16T01:17:20;3.03;;;1.50;;
18796;SDS011;9526;52.612;13.300;2022-09-16T01:20:00;5.50;;;1.40;;
18796;SDS011;9526;52.612;13.300;2022-09-16T01:22:56;3.45;;;1.50;;
18796;SDS011;9526;52.612;13.300;2022-09-16T01:25:44;3.85;;;1.40;;
18796;SDS011;9526;52.612;13.300;2022-09-16T01:28:31;4.70;;;1.40;;
18796;SDS011;9526;52.612;13.300;2022-09-16T01:31:23;3.80;;;1.50;;
18796;SDS011;9526;52.612;13.300;2022-09-16T01:33:55;6.40;;;1.55;;
18796;SDS011;9526;52.612;13.300;2022-09-16T01:36:29;5.10;;;1.60;;
18796;SDS011;9526;52.612;13.300;2022-09-16T01:39:05;6.85;;;1.48;;
18796;SDS011;9526;52.612;13.300;2022-09-16T01:41:42;6.85;;;1.38;;
18796;SDS011;9526;52.612;13.300;2022-09-16T01:44:26;5.38;;;1.58;;
18796;SDS011;9526;52.612;13.300;2022-09-16T01:47:02;7.10;;;2.10;;
18796;SDS011;9526;52.612;13.300;2022-09-16T01:49:34;9.35;;;2.30;;
18796;SDS011;9526;52.612;13.300;2022-09-16T01:52:08;6.40;;;1.83;;
18796;SDS011;9526;52.612;13.300;2022-09-16T01:54:44;4.47;;;1.63;;
18796;SDS011;9526;52.612;13.300;2022-09-16T01:57:15;4.97;;;1.63;;
18796;SDS011;9526;52.612;13.300;2022-09-16T01:59:41;5.25;;;1.42;;
18796;SDS011;9526;52.612;13.300;2022-09-16T02:02:14;8.15;;;1.90;;
18796;SDS011;9526;52.612;13.300;2022-09-16T02:04:43;3.97;;;1.65;;
18796;SDS011;9526;52.612;13.300;2022-09-16T02:07:10;6.35;;;1.88;;
18796;SDS011;9526;52.612;13.300;2022-09-16T02:09:38;6.40;;;2.05;;
18796;SDS011;9526;52.612;13.300;2022-09-16T02:12:07;3.60;;;1.98;;
18796;SDS011;9526;52.612;13.300;2022-09-16T02:14:37;5.70;;;2.30;;
18796;SDS011;9526;52.612;13.300;2022-09-16T02:17:04;3.90;;;1.67;;
18796;SDS011;9526;52.612;13.300;2022-09-16T02:19:33;7.40;;;1.60;;
18796;SDS011;9526;52.612;13.300;2022-09-16T02:22:04;6.45;;;1.85;;
18796;SDS011;9526;52.612;13.300;2022-09-16T02:24:31;7.03;;;2.00;;
18796;SDS011;9526;52.612;13.300;2022-09-16T02:26:57;6.45;;;2.08;;
18796;SDS011;9526;52.612;13.300;2022-09-16T02:29:24;4.57;;;1.70;;
18796;SDS011;9526;52.612;13.300;2022-09-16T02:31:55;4.50;;;1.48;;
18796;SDS011;9526;52.612;13.300;2022-09-16T02:34:23;7.50;;;2.03;;
18796;SDS011;9526;52.612;13.300;2022-09-16T02:36:53;8.80;;;2.33;;
18796;SDS011;9526;52.612;13.300;2022-09-16T02:39:27;16.73;;;2.80;;
18796;SDS011;9526;52.612;13.300;2022-09-16T02:41:58;5.90;;;2.40;;
18796;SDS011;9526;52.612;13.300;2022-09-16T02:44:23;9.20;;;2.10;;
18796;SDS011;9526;52.612;13.300;2022-09-16T02:46:48;9.75;;;2.20;;
18796;SDS011;9526;52.612;13.300;2022-09-16T02:49:22;7.72;;;2.10;;
18796;SDS011;9526;52.612;13.300;2022-09-16T02:51:54;8.90;;;2.03;;
18796;SDS011;9526;52.612;13.300;2022-09-16T02:54:22;11.45;;;2.33;;
18796;SDS011;9526;52.612;13.300;2022-09-16T02:56:55;11.70;;;2.60;;
18796;SDS011;9526;52.612;13.300;2022-09-16T02:59:19;11.32;;;2.70;;
18796;SDS011;9526;52.612;13.300;2022-09-16T03:01:44;8.23;;;2.60;;
18796;SDS011;9526;52.612;13.300;2022-09-16T03:04:08;12.70;;;2.50;;
18796;SDS011;9526;52.612;13.300;2022-09-16T03:06:35;10.23;;;2.63;;
18796;SDS011;9526;52.612;13.300;2022-09-16T03:09:02;14.80;;;2.92;;
18796;SDS011;9526;52.612;13.300;2022-09-16T03:11:31;9.10;;;2.80;;
18796;SDS011;9526;52.612;13.300;2022-09-16T03:17:40;9.30;;;2.78;;
18796;SDS011;9526;52.612;13.300;2022-09-16T03:20:20;7.47;;;2.40;;
18796;SDS011;9526;52.612;13.300;2022-09-16T03:22:54;7.55;;;2.80;;
18796;SDS011;9526;52.612;13.300;2022-09-16T03:25:33;8.38;;;2.63;;
18796;SDS011;9526;52.612;13.300;2022-09-16T03:28:09;10.05;;;2.50;;
18796;SDS011;9526;52.612;13.300;2022-09-16T03:30:37;4.50;;;2.30;;
18796;SDS011;9526;52.612;13.300;2022-09-16T03:33:08;8.50;;;2.70;;
18796;SDS011;9526;52.612;13.300;2022-09-16T03:35:42;7.88;;;2.60;;
18796;SDS011;9526;52.612;13.300;2022-09-16T03:38:08;5.63;;;2.60;;
18796;SDS011;9526;52.612;13.300;2022-09-16T03:40:35;8.05;;;2.47;;
18796;SDS011;9526;52.612;13.300;2022-09-16T03:43:00;11.75;;;2.50;;
18796;SDS011;9526;52.612;13.300;2022-09-16T03:45:33;6.47;;;2.70;;
18796;SDS011;9526;52.612;13.300;2022-09-16T03:47:57;9.38;;;2.67;;
18796;SDS011;9526;52.612;13.300;2022-09-16T03:50:20;6.10;;;2.45;;
18796;SDS011;9526;52.612;13.300;2022-09-16T03:52:44;10.45;;;2.63;;
18796;SDS011;9526;52.612;13.300;2022-09-16T03:55:08;9.00;;;2.15;;
18796;SDS011;9526;52.612;13.300;2022-09-16T03:57:33;9.23;;;2.33;;
18796;SDS011;9526;52.612;13.300;2022-09-16T03:59:57;6.32;;;2.70;;
18796;SDS011;9526;52.612;13.300;2022-09-16T04:02:20;6.20;;;2.33;;
18796;SDS011;9526;52.612;13.300;2022-09-16T04:04:44;10.38;;;3.13;;
18796;SDS011;9526;52.612;13.300;2022-09-16T04:07:08;8.32;;;2.95;;
18796;SDS011;9526;52.612;13.300;2022-09-16T04:09:32;7.90;;;2.53;;
18796;SDS011;9526;52.612;13.300;2022-09-16T04:11:57;8.80;;;3.00;;
18796;SDS011;9526;52.612;13.300;2022-09-16T04:14:22;9.40;;;2.42;;
18796;SDS011;9526;52.612;13.300;2022-09-16T04:16:46;5.68;;;2.40;;
18796;SDS011;9526;52.612;13.300;2022-09-16T04:19:10;9.05;;;2.90;;
18796;SDS011;9526;52.612;13.300;2022-09-16T04:21:35;7.30;;;2.60;;
18796;SDS011;9526;52.612;13.300;2022-09-16T04:23:59;12.52;;;2.80;;
18796;SDS011;9526;52.612;13.300;2022-09-16T04:26:23;10.57;;;2.72;;
18796;SDS011;9526;52.612;13.300;2022-09-16T04:28:46;7.97;;;2.60;;
18796;SDS011;9526;52.612;13.300;2022-09-16T04:31:12;8.27;;;2.35;;
18796;SDS011;9526;52.612;13.300;2022-09-16T04:33:37;9.95;;;2.60;;
18796;SDS011;9526;52.612;13.300;2022-09-16T04:36:02;12.43;;;2.75;;
18796;SDS011;9526;52.612;13.300;2022-09-16T04:38:27;7.93;;;2.30;;
18796;SDS011;9526;52.612;13.300;2022-09-16T04:40:51;9.88;;;2.67;;
18796;SDS011;9526;52.612;13.300;2022-09-16T04:43:14;8.10;;;2.58;;
18796;SDS011;9526;52.612;13.300;2022-09-16T04:45:38;9.25;;;2.60;;
18796;SDS011;9526;52.612;13.300;2022-09-16T04:48:03;7.90;;;2.70;;
18796;SDS011;9526;52.612;13.300;2022-09-16T04:50:26;7.40;;;2.83;;
18796;SDS011;9526;52.612;13.300;2022-09-16T04:52:50;9.63;;;2.50;;
18796;SDS011;9526;52.612;13.300;2022-09-16T04:55:14;9.00;;;2.40;;
18796;SDS011;9526;52.612;13.300;2022-09-16T04:57:38;8.23;;;2.70;;
18796;SDS011;9526;52.612;13.300;2022-09-16T05:00:03;5.72;;;2.28;;
18796;SDS011;9526;52.612;13.300;2022-09-16T05:02:27;9.80;;;2.58;;
18796;SDS011;9526;52.612;13.300;2022-09-16T05:04:52;7.03;;;2.25;;
18796;SDS011;9526;52.612;13.300;2022-09-16T05:07:16;6.82;;;2.90;;
18796;SDS011;9526;52.612;13.300;2022-09-16T05:09:39;4.70;;;2.50;;
18796;SDS011;9526;52.612;13.300;2022-09-16T05:12:03;9.13;;;2.42;;
18796;SDS011;9526;52.612;13.300;2022-09-16T05:14:28;8.90;;;2.55;;
18796;SDS011;9526;52.612;13.300;2022-09-16T05:16:52;8.48;;;3.30;;
18796;SDS011;9526;52.612;13.300;2022-09-16T05:19:16;11.57;;;2.75;;
18796;SDS011;9526;52.612;13.300;2022-09-16T05:21:41;5.60;;;2.42;;
18796;SDS011;9526;52.612;13.300;2022-09-16T05:24:05;5.05;;;2.20;;
18796;SDS011;9526;52.612;13.300;2022-09-16T05:26:31;7.57;;;2.00;;
18796;SDS011;9526;52.612;13.300;2022-09-16T05:28:58;4.40;;;2.22;;
18796;SDS011;9526;52.612;13.300;2022-09-16T05:31:23;5.65;;;2.22;;
18796;SDS011;9526;52.612;13.300;2022-09-16T05:33:52;5.75;;;2.38;;
18796;SDS011;9526;52.612;13.300;2022-09-16T05:36:17;9.30;;;2.70;;
18796;SDS011;9526;52.612;13.300;2022-09-16T05:38:43;14.60;;;2.40;;
18796;SDS011;9526;52.612;13.300;2022-09-16T05:41:27;5.60;;;2.15;;
18796;SDS011;9526;52.612;13.300;2022-09-16T05:43:50;5.35;;;2.25;;
18796;SDS011;9526;52.612;13.300;2022-09-16T05:46:16;6.15;;;2.25;;
18796;SDS011;9526;52.612;13.300;2022-09-16T05:48:41;10.23;;;2.47;;
18796;SDS011;9526;52.612;13.300;2022-09-16T05:51:05;6.75;;;2.13;;
18796;SDS011;9526;52.612;13.300;2022-09-16T05:53:29;6.65;;;3.25;;
18796;SDS011;9526;52.612;13.300;2022-09-16T05:55:57;8.68;;;2.35;;
18796;SDS011;9526;52.612;13.300;2022-09-16T05:58:22;5.10;;;1.73;;
18796;SDS011;9526;52.612;13.300;2022-09-16T06:00:46;6.32;;;3.50;;
18796;SDS011;9526;52.612;13.300;2022-09-16T06:03:09;8.93;;;1.98;;
18796;SDS011;9526;52.612;13.300;2022-09-16T06:05:33;5.88;;;1.85;;
18796;SDS011;9526;52.612;13.300;2022-09-16T06:07:57;4.00;;;2.17;;
18796;SDS011;9526;52.612;13.300;2022-09-16T06:10:20;3.65;;;2.13;;
18796;SDS011;9526;52.612;13.300;2022-09-16T06:12:45;7.82;;;2.50;;
18796;SDS011;9526;52.612;13.300;2022-09-16T06:15:09;3.10;;;1.60;;
18796;SDS011;9526;52.612;13.300;2022-09-16T06:17:33;7.30;;;2.10;;
18796;SDS011;9526;52.612;13.300;2022-09-16T06:19:57;4.95;;;1.63;;
18796;SDS011;9526;52.612;13.300;2022-09-16T06:22:20;3.95;;;1.80;;
18796;SDS011;9526;52.612;13.300;2022-09-16T06:24:44;5.75;;;3.08;;
18796;SDS011;9526;52.612;13.300;2022-09-16T06:27:07;7.72;;;2.10;;
18796;SDS011;9526;52.612;13.300;2022-09-16T06:29:32;5.75;;;2.65;;
18796;SDS011;9526;52.612;13.300;2022-09-16T06:31:56;4.07;;;1.60;;
18796;SDS011;9526;52.612;13.300;2022-09-16T06:34:20;8.35;;;1.60;;
18796;SDS011;9526;52.612;13.300;2022-09-16T06:36:43;7.18;;;2.53;;
18796;SDS011;9526;52.612;13.300;2022-09-16T06:39:09;7.30;;;2.22;;
18796;SDS011;9526;52.612;13.300;2022-09-16T06:41:34;5.35;;;1.90;;
18796;SDS011;9526;52.612;13.300;2022-09-16T06:43:58;3.33;;;1.90;;
18796;SDS011;9526;52.612;13.300;2022-09-16T06:46:24;6.63;;;2.00;;
18796;SDS011;9526;52.612;13.300;2022-09-16T06:48:50;4.63;;;2.05;;
18796;SDS011;9526;52.612;13.300;2022-09-16T06:51:21;7.32;;;2.17;;
18796;SDS011;9526;52.612;13.300;2022-09-16T06:53:46;5.53;;;1.90;;
18796;SDS011;9526;52.612;13.300;2022-09-16T06:56:11;5.10;;;2.15;;
18796;SDS011;9526;52.612;13.300;2022-09-16T06:58:39;5.05;;;1.60;;
18796;SDS011;9526;52.612;13.300;2022-09-16T07:01:05;8.32;;;1.98;;
18796;SDS011;9526;52.612;13.300;2022-09-16T07:03:30;4.78;;;1.95;;
18796;SDS011;9526;52.612;13.300;2022-09-16T07:05:55;7.05;;;1.77;;
18796;SDS011;9526;52.612;13.300;2022-09-16T07:08:20;4.18;;;1.77;;
18796;SDS011;9526;52.612;13.300;2022-09-16T07:10:44;5.38;;;1.70;;
18796;SDS011;9526;52.612;13.300;2022-09-16T07:13:19;5.53;;;1.83;;
18796;SDS011;9526;52.612;13.300;2022-09-16T07:15:42;3.65;;;1.58;;
18796;SDS011;9526;52.612;13.300;2022-09-16T07:18:26;6.38;;;2.00;;
18796;SDS011;9526;52.612;13.300;2022-09-16T07:20:51;6.28;;;2.30;;
18796;SDS011;9526;52.612;13.300;2022-09-16T07:23:14;7.53;;;1.80;;
18796;SDS011;9526;52.612;13.300;2022-09-16T07:25:38;2.47;;;1.80;;
18796;SDS011;9526;52.612;13.300;2022-09-16T07:28:02;6.68;;;1.92;;
18796;SDS011;9526;52.612;13.300;2022-09-16T07:30:26;5.65;;;1.70;;
18796;SDS011;9526;52.612;13.300;2022-09-16T07:32:50;5.07;;;1.75;;
18796;SDS011;9526;52.612;13.300;2022-09-16T07:35:14;5.57;;;1.83;;
18796;SDS011;9526;52.612;13.300;2022-09-16T07:37:39;3.17;;;1.65;;
18796;SDS011;9526;52.612;13.300;2022-09-16T07:40:03;4.88;;;1.48;;
18796;SDS011;9526;52.612;13.300;2022-09-16T07:42:28;6.53;;;1.85;;
18796;SDS011;9526;52.612;13.300;2022-09-16T07:44:52;2.65;;;1.23;;
18796;SDS011;9526;52.612;13.300;2022-09-16T07:47:15;4.55;;;1.80;;
18796;SDS011;9526;52.612;13.300;2022-09-16T07:49:42;4.10;;;1.58;;
18796;SDS011;9526;52.612;13.300;2022-09-16T07:52:06;9.85;;;2.05;;
18796;SDS011;9526;52.612;13.300;2022-09-16T07:54:31;4.65;;;1.13;;
18796;SDS011;9526;52.612;13.300;2022-09-16T07:56:55;9.18;;;1.30;;
18796;SDS011;9526;52.612;13.300;2022-09-16T07:59:19;4.63;;;1.10;;
18796;SDS011;9526;52.612;13.300;2022-09-16T08:01:43;5.90;;;1.30;;
18796;SDS011;9526;52.612;13.300;2022-09-16T08:04:07;6.20;;;1.48;;
18796;SDS011;9526;52.612;13.300;2022-09-16T08:06:31;7.18;;;1.42;;
18796;SDS011;9526;52.612;13.300;2022-09-16T08:08:55;4.18;;;1.20;;
18796;SDS011;9526;52.612;13.300;2022-09-16T08:11:37;4.38;;;1.10;;
18796;SDS011;9526;52.612;13.300;2022-09-16T08:14:00;6.03;;;1.23;;
18796;SDS011;9526;52.612;13.300;2022-09-16T08:16:24;5.55;;;1.65;;
18796;SDS011;9526;52.612;13.300;2022-09-16T08:18:49;2.70;;;1.15;;
18796;SDS011;9526;52.612;13.300;2022-09-16T08:21:16;2.97;;;1.20;;
18796;SDS011;9526;52.612;13.300;2022-09-16T08:23:42;3.88;;;0.98;;
18796;SDS011;9526;52.612;13.300;2022-09-16T08:26:06;2.38;;;1.23;;
18796;SDS011;9526;52.612;13.300;2022-09-16T08:28:32;3.25;;;1.08;;
18796;SDS011;9526;52.612;13.300;2022-09-16T08:31:16;6.75;;;1.05;;
18796;SDS011;9526;52.612;13.300;2022-09-16T08:33:41;3.55;;;0.98;;
18796;SDS011;9526;52.612;13.300;2022-09-16T08:36:06;6.45;;;1.00;;
18796;SDS011;9526;52.612;13.300;2022-09-16T08:38:35;5.03;;;1.08;;
18796;SDS011;9526;52.612;13.300;2022-09-16T08:41:00;7.72;;;1.00;;
18796;SDS011;9526;52.612;13.300;2022-09-16T08:43:30;2.85;;;1.10;;
18796;SDS011;9526;52.612;13.300;2022-09-16T08:46:05;6.22;;;1.20;;
18796;SDS011;9526;52.612;13.300;2022-09-16T08:48:44;5.45;;;1.20;;
18796;SDS011;9526;52.612;13.300;2022-09-16T08:51:14;8.95;;;1.30;;
18796;SDS011;9526;52.612;13.300;2022-09-16T08:53:42;3.38;;;1.05;;
18796;SDS011;9526;52.612;13.300;2022-09-16T08:56:12;3.65;;;1.55;;
18796;SDS011;9526;52.612;13.300;2022-09-16T08:58:41;7.05;;;1.13;;
18796;SDS011;9526;52.612;13.300;2022-09-16T09:01:12;3.65;;;0.98;;
18796;SDS011;9526;52.612;13.300;2022-09-16T09:03:40;3.50;;;1.05;;
18796;SDS011;9526;52.612;13.300;2022-09-16T09:06:10;5.82;;;1.00;;
18796;SDS011;9526;52.612;13.300;2022-09-16T09:08:45;2.88;;;0.85;;
18796;SDS011;9526;52.612;13.300;2022-09-16T09:11:20;5.53;;;0.98;;
18796;SDS011;9526;52.612;13.300;2022-09-16T09:16:55;4.10;;;1.08;;
18796;SDS011;9526;52.612;13.300;2022-09-16T09:19:29;4.47;;;1.00;;
18796;SDS011;9526;52.612;13.300;2022-09-16T09:22:09;6.68;;;1.60;;
18796;SDS011;9526;52.612;13.300;2022-09-16T09:24:45;8.27;;;1.30;;
18796;SDS011;9526;52.612;13.300;2022-09-16T09:27:23;6.22;;;1.45;;
18796;SDS011;9526;52.612;13.300;2022-09-16T09:30:00;3.05;;;1.00;;
18796;SDS011;9526;52.612;13.300;2022-09-16T09:32:36;8.38;;;1.60;;
18796;SDS011;9526;52.612;13.300;2022-09-16T09:35:17;8.43;;;1.30;;
18796;SDS011;9526;52.612;13.300;2022-09-16T09:38:01;5.78;;;1.38;;
18796;SDS011;9526;52.612;13.300;2022-09-16T09:40:55;3.80;;;1.05;;
18796;SDS011;9526;52.612;13.300;2022-09-16T09:43:27;10.50;;;1.50;;
18796;SDS011;9526;52.612;13.300;2022-09-16T09:46:00;9.27;;;1.60;;
18796;SDS011;9526;52.612;13.300;2022-09-16T09:48:28;7.63;;;1.38;;
18796;SDS011;9526;52.612;13.300;2022-09-16T09:50:57;6.20;;;1.30;;
18796;SDS011;9526;52.612;13.300;2022-09-16T09:53:27;13.40;;;1.67;;
18796;SDS011;9526;52.612;13.300;2022-09-16T09:55:56;13.27;;;1.95;;
18796;SDS011;9526;52.612;13.300;2022-09-16T09:58:31;79.07;;;4.75;;
18796;SDS011;9526;52.612;13.300;2022-09-16T10:01:00;95.80;;;6.68;;
18796;SDS011;9526;52.612;13.300;2022-09-16T10:03:25;10.73;;;1.83;;
18796;SDS011;9526;52.612;13.300;2022-09-16T10:05:50;7.22;;;1.35;;
18796;SDS011;9526;52.612;13.300;2022-09-16T10:08:16;5.43;;;1.00;;
18796;SDS011;9526;52.612;13.300;2022-09-16T10:10:48;6.50;;;1.20;;
18796;SDS011;9526;52.612;13.300;2022-09-16T10:13:14;5.78;;;1.40;;
18796;SDS011;9526;52.612;13.300;2022-09-16T10:15:38;7.72;;;1.40;;
18796;SDS011;9526;52.612;13.300;2022-09-16T10:18:09;5.05;;;0.90;;
18796;SDS011;9526;52.612;13.300;2022-09-16T10:20:38;6.30;;;1.13;;
18796;SDS011;9526;52.612;13.300;2022-09-16T10:23:05;5.95;;;1.30;;
18796;SDS011;9526;52.612;13.300;2022-09-16T10:25:32;4.65;;;0.93;;
18796;SDS011;9526;52.612;13.300;2022-09-16T10:27:57;11.00;;;1.35;;
18796;SDS011;9526;52.612;13.300;2022-09-16T10:30:22;4.97;;;1.27;;
18796;SDS011;9526;52.612;13.300;2022-09-16T10:32:47;7.50;;;1.10;;
18796;SDS011;9526;52.612;13.300;2022-09-16T10:35:17;12.18;;;1.23;;
18796;SDS011;9526;52.612;13.300;2022-09-16T10:37:46;5.15;;;1.20;;
18796;SDS011;9526;52.612;13.300;2022-09-16T10:40:17;6.57;;;1.10;;
18796;SDS011;9526;52.612;13.300;2022-09-16T10:42:45;8.15;;;1.15;;
18796;SDS011;9526;52.612;13.300;2022-09-16T10:45:13;9.45;;;1.20;;
18796;SDS011;9526;52.612;13.300;2022-09-16T10:47:47;2.88;;;0.85;;
18796;SDS011;9526;52.612;13.300;2022-09-16T10:50:17;6.03;;;0.98;;
18796;SDS011;9526;52.612;13.300;2022-09-16T10:52:43;6.22;;;1.40;;
18796;SDS011;9526;52.612;13.300;2022-09-16T10:55:11;8.65;;;1.10;;
18796;SDS011;9526;52.612;13.300;2022-09-16T10:57:48;7.75;;;1.27;;
18796;SDS011;9526;52.612;13.300;2022-09-16T11:00:13;5.20;;;1.13;;
18796;SDS011;9526;52.612;13.300;2022-09-16T11:05:55;7.35;;;1.20;;
18796;SDS011;9526;52.612;13.300;2022-09-16T11:08:39;5.65;;;1.50;;
18796;SDS011;9526;52.612;13.300;2022-09-16T11:11:16;4.30;;;1.00;;
18796;SDS011;9526;52.612;13.300;2022-09-16T11:14:00;6.45;;;1.20;;
18796;SDS011;9526;52.612;13.300;2022-09-16T11:16:41;4.40;;;1.20;;
18796;SDS011;9526;52.612;13.300;2022-09-16T11:19:20;3.72;;;1.10;;
18796;SDS011;9526;52.612;13.300;2022-09-16T11:22:02;8.23;;;1.10;;
18796;SDS011;9526;52.612;13.300;2022-09-16T11:24:55;6.22;;;1.25;;
18796;SDS011;9526;52.612;13.300;2022-09-16T11:27:49;5.03;;;1.15;;
18796;SDS011;9526;52.612;13.300;2022-09-16T11:30:23;5.25;;;1.25;;
18796;SDS011;9526;52.612;13.300;2022-09-16T11:35:44;8.25;;;1.25;;
18796;SDS011;9526;52.612;13.300;2022-09-16T11:38:44;4.82;;;1.00;;
18796;SDS011;9526;52.612;13.300;2022-09-16T11:41:22;6.13;;;1.02;;
18796;SDS011;9526;52.612;13.300;2022-09-16T11:44:00;5.20;;;1.00;;
18796;SDS011;9526;52.612;13.300;2022-09-16T11:46:50;5.55;;;1.20;;
18796;SDS011;9526;52.612;13.300;2022-09-16T11:49:34;3.42;;;1.05;;
18796;SDS011;9526;52.612;13.300;2022-09-16T11:52:19;5.97;;;0.90;;
18796;SDS011;9526;52.612;13.300;2022-09-16T11:55:12;5.05;;;0.90;;
18796;SDS011;9526;52.612;13.300;2022-09-16T11:57:52;5.55;;;0.90;;
18796;SDS011;9526;52.612;13.300;2022-09-16T12:00:20;4.75;;;0.95;;
18796;SDS011;9526;52.612;13.300;2022-09-16T12:02:44;3.85;;;0.98;;
18796;SDS011;9526;52.612;13.300;2022-09-16T12:05:19;7.88;;;1.20;;
18796;SDS011;9526;52.612;13.300;2022-09-16T12:07:49;3.78;;;1.05;;
18796;SDS011;9526;52.612;13.300;2022-09-16T12:10:21;9.82;;;1.13;;
18796;SDS011;9526;52.612;13.300;2022-09-16T12:12:48;5.88;;;0.90;;
18796;SDS011;9526;52.612;13.300;2022-09-16T12:15:18;3.40;;;1.13;;
18796;SDS011;9526;52.612;13.300;2022-09-16T12:17:52;5.30;;;0.80;;
18796;SDS011;9526;52.612;13.300;2022-09-16T12:20:18;6.30;;;1.13;;
18796;SDS011;9526;52.612;13.300;2022-09-16T12:22:47;5.72;;;0.82;;
18796;SDS011;9526;52.612;13.300;2022-09-16T12:25:17;2.63;;;0.82;;
18796;SDS011;9526;52.612;13.300;2022-09-16T12:27:49;2.20;;;0.70;;
18796;SDS011;9526;52.612;13.300;2022-09-16T12:30:16;2.92;;;0.73;;
18796;SDS011;9526;52.612;13.300;2022-09-16T12:32:46;2.95;;;0.80;;
18796;SDS011;9526;52.612;13.300;2022-09-16T12:35:19;3.50;;;0.85;;
18796;SDS011;9526;52.612;13.300;2022-09-16T12:37:49;4.10;;;0.80;;
18796;SDS011;9526;52.612;13.300;2022-09-16T12:40:15;4.88;;;1.30;;
18796;SDS011;9526;52.612;13.300;2022-09-16T12:46:04;8.68;;;0.80;;
18796;SDS011;9526;52.612;13.300;2022-09-16T12:49:12;3.88;;;0.95;;
18796;SDS011;9526;52.612;13.300;2022-09-16T12:52:11;5.85;;;0.80;;
18796;SDS011;9526;52.612;13.300;2022-09-16T12:58:14;6.22;;;1.15;;
18796;SDS011;9526;52.612;13.300;2022-09-16T13:01:14;5.05;;;0.90;;
18796;SDS011;9526;52.612;13.300;2022-09-16T13:03:44;7.72;;;1.30;;
18796;SDS011;9526;52.612;13.300;2022-09-16T13:06:21;5.13;;;1.00;;
18796;SDS011;9526;52.612;13.300;2022-09-16T13:08:48;3.00;;;0.80;;
18796;SDS011;9526;52.612;13.300;2022-09-16T13:11:16;5.00;;;0.98;;
18796;SDS011;9526;52.612;13.300;2022-09-16T13:14:02;3.50;;;1.10;;
18796;SDS011;9526;52.612;13.300;2022-09-16T13:16:32;5.63;;;1.02;;
18796;SDS011;9526;52.612;13.300;2022-09-16T13:19:14;3.05;;;0.82;;
18796;SDS011;9526;52.612;13.300;2022-09-16T13:21:57;3.97;;;0.80;;
18796;SDS011;9526;52.612;13.300;2022-09-16T13:24:34;6.25;;;0.95;;
18796;SDS011;9526;52.612;13.300;2022-09-16T13:27:01;4.22;;;0.93;;
18796;SDS011;9526;52.612;13.300;2022-09-16T13:29:45;4.70;;;0.80;;
18796;SDS011;9526;52.612;13.300;2022-09-16T13:32:26;4.78;;;0.88;;
18796;SDS011;9526;52.612;13.300;2022-09-16T13:35:00;5.45;;;0.70;;
18796;SDS011;9526;52.612;13.300;2022-09-16T13:37:26;8.45;;;1.00;;
18796;SDS011;9526;52.612;13.300;2022-09-16T13:39:49;3.53;;;0.88;;
18796;SDS011;9526;52.612;13.300;2022-09-16T13:42:16;5.00;;;0.88;;
18796;SDS011;9526;52.612;13.300;2022-09-16T13:44:42;3.63;;;0.90;;
18796;SDS011;9526;52.612;13.300;2022-09-16T13:47:11;3.00;;;1.00;;
18796;SDS011;9526;52.612;13.300;2022-09-16T13:49:55;4.18;;;1.00;;
18796;SDS011;9526;52.612;13.300;2022-09-16T13:52:25;3.83;;;1.30;;
18796;SDS011;9526;52.612;13.300;2022-09-16T13:54:51;5.53;;;0.98;;
18796;SDS011;9526;52.612;13.300;2022-09-16T13:57:42;6.18;;;1.05;;
18796;SDS011;9526;52.612;13.300;2022-09-16T14:00:21;5.38;;;1.00;;
18796;SDS011;9526;52.612;13.300;2022-09-16T14:09:05;6.95;;;1.00;;
18796;SDS011;9526;52.612;13.300;2022-09-16T14:11:42;3.17;;;0.90;;
18796;SDS011;9526;52.612;13.300;2022-09-16T14:14:15;3.60;;;1.02;;
18796;SDS011;9526;52.612;13.300;2022-09-16T14:17:03;6.18;;;0.93;;
18796;SDS011;9526;52.612;13.300;2022-09-16T14:19:38;5.18;;;0.82;;
18796;SDS011;9526;52.612;13.300;2022-09-16T14:22:04;3.88;;;0.98;;
18796;SDS011;9526;52.612;13.300;2022-09-16T14:24:38;7.50;;;1.15;;
18796;SDS011;9526;52.612;13.300;2022-09-16T14:27:03;3.67;;;0.77;;
18796;SDS011;9526;52.612;13.300;2022-09-16T14:29:38;2.50;;;0.93;;
18796;SDS011;9526;52.612;13.300;2022-09-16T14:32:02;3.40;;;1.00;;
18796;SDS011;9526;52.612;13.300;2022-09-16T14:34:27;4.03;;;1.02;;
18796;SDS011;9526;52.612;13.300;2022-09-16T14:36:56;6.50;;;1.30;;
18796;SDS011;9526;52.612;13.300;2022-09-16T14:39:20;3.80;;;1.38;;
18796;SDS011;9526;52.612;13.300;2022-09-16T14:41:47;2.03;;;0.75;;
18796;SDS011;9526;52.612;13.300;2022-09-16T14:44:16;7.03;;;0.90;;
18796;SDS011;9526;52.612;13.300;2022-09-16T14:46:48;4.50;;;0.88;;
18796;SDS011;9526;52.612;13.300;2022-09-16T14:49:29;6.95;;;1.30;;
18796;SDS011;9526;52.612;13.300;2022-09-16T14:51:54;5.03;;;1.10;;
18796;SDS011;9526;52.612;13.300;2022-09-16T14:54:22;7.80;;;1.10;;
18796;SDS011;9526;52.612;13.300;2022-09-16T14:56:55;3.42;;;0.73;;
18796;SDS011;9526;52.612;13.300;2022-09-16T14:59:20;4.65;;;1.02;;
18796;SDS011;9526;52.612;13.300;2022-09-16T15:01:48;6.55;;;1.05;;
18796;SDS011;9526;52.612;13.300;2022-09-16T15:04:14;4.93;;;0.90;;
18796;SDS011;9526;52.612;13.300;2022-09-16T15:06:46;4.57;;;1.10;;
18796;SDS011;9526;52.612;13.300;2022-09-16T15:09:18;4.07;;;1.10;;
18796;SDS011;9526;52.612;13.300;2022-09-16T15:11:49;2.63;;;1.08;;
18796;SDS011;9526;52.612;13.300;2022-09-16T15:14:18;5.78;;;1.02;;
18796;SDS011;9526;52.612;13.300;2022-09-16T15:16:44;7.05;;;1.20;;
18796;SDS011;9526;52.612;13.300;2022-09-16T15:19:15;4.88;;;0.95;;
18796;SDS011;9526;52.612;13.300;2022-09-16T15:21:42;6.25;;;1.05;;
18796;SDS011;9526;52.612;13.300;2022-09-16T15:24:14;3.65;;;1.00;;
18796;SDS011;9526;52.612;13.300;2022-09-16T15:26:43;10.35;;;1.45;;